createdAt,value
2018-02-07T00:00:03.465Z,36.42
2018-02-07T00:00:27.243Z,33.55
2018-02-07T00:00:51.068Z,33.60
2018-02-07T00:01:14.813Z,35.60
2018-02-07T00:01:38.556Z,36.92
2018-02-07T00:02:02.004Z,35.87
2018-02-07T00:02:25.850Z,35.88
2018-02-07T00:02:49.674Z,36.05
2018-02-07T00:03:13.636Z,36.47
2018-02-07T00:03:37.380Z,35.97
2018-02-07T00:04:01.128Z,40.78
2018-02-07T00:04:24.281Z,40.53
2018-02-07T00:04:48.069Z,38.05
2018-02-07T00:05:11.534Z,34.63
2018-02-07T00:05:35.302Z,35.22
2018-02-07T00:05:59.064Z,36.28
2018-02-07T00:06:24.437Z,37.05
2018-02-07T00:06:48.208Z,36.85
2018-02-07T00:07:12.045Z,35.17
2018-02-07T00:07:35.900Z,35.08
2018-02-07T00:07:59.990Z,35.38
2018-02-07T00:08:23.797Z,35.65
2018-02-07T00:08:47.853Z,34.78
2018-02-07T00:09:11.624Z,33.75
2018-02-07T00:09:35.117Z,34.33
2018-02-07T00:09:58.916Z,34.72
2018-02-07T00:10:22.953Z,35.65
2018-02-07T00:10:46.925Z,36.10
2018-02-07T00:11:10.679Z,37.50
2018-02-07T00:11:34.502Z,38.10
2018-02-07T00:11:58.540Z,35.90
2018-02-07T00:12:22.352Z,33.30
2018-02-07T00:12:46.497Z,33.88
2018-02-07T00:13:10.314Z,36.63
2018-02-07T00:13:34.415Z,35.38
2018-02-07T00:13:58.189Z,36.22
2018-02-07T00:14:22.221Z,34.63
2018-02-07T00:14:45.695Z,34.43
2018-02-07T00:15:09.503Z,33.88
2018-02-07T00:15:33.256Z,36.85
2018-02-07T00:15:57.089Z,38.90
2018-02-07T00:16:23.088Z,36.80
2018-02-07T00:16:46.860Z,32.58
2018-02-07T00:17:10.910Z,34.05
2018-02-07T00:17:35.059Z,37.25
2018-02-07T00:17:58.880Z,37.45
2018-02-07T00:18:22.720Z,34.95
2018-02-07T00:18:46.788Z,33.65
2018-02-07T00:19:10.559Z,35.05
2018-02-07T00:19:34.018Z,34.80
2018-02-07T00:19:57.760Z,35.20
2018-02-07T00:20:21.539Z,34.55
2018-02-07T00:20:45.599Z,33.72
2018-02-07T00:21:09.350Z,34.28
2018-02-07T00:21:32.846Z,36.70
2018-02-07T00:21:56.656Z,37.08
2018-02-07T00:22:20.404Z,35.85
2018-02-07T00:22:43.853Z,35.47
2018-02-07T00:23:07.650Z,35.85
2018-02-07T00:23:31.421Z,35.58
2018-02-07T00:23:55.240Z,35.00
2018-02-07T00:24:18.745Z,32.23
2018-02-07T00:24:42.497Z,33.22
2018-02-07T00:25:06.244Z,34.88
2018-02-07T00:25:30.012Z,36.95
2018-02-07T00:25:56.336Z,37.45
2018-02-07T00:26:20.144Z,36.73
2018-02-07T00:26:44.008Z,37.03
2018-02-07T00:27:07.617Z,35.92
2018-02-07T00:27:32.257Z,37.75
2018-02-07T00:27:55.920Z,38.90
2018-02-07T00:28:20.345Z,36.58
2018-02-07T00:28:44.174Z,38.30
2018-02-07T00:29:07.979Z,38.97
2018-02-07T00:29:31.724Z,36.00
2018-02-07T00:29:55.497Z,36.50
2018-02-07T00:30:18.948Z,38.10
2018-02-07T00:30:42.956Z,37.80
2018-02-07T00:31:06.734Z,35.50
2018-02-07T00:31:30.546Z,33.55
2018-02-07T00:31:54.550Z,34.70
2018-02-07T00:32:18.293Z,37.25
2018-02-07T00:32:42.367Z,36.38
2018-02-07T00:33:06.181Z,37.78
2018-02-07T00:33:29.917Z,39.55
2018-02-07T00:33:53.694Z,42.30
2018-02-07T00:34:17.471Z,41.03
2018-02-07T00:34:41.244Z,40.75
2018-02-07T00:35:05.030Z,40.28
2018-02-07T00:35:29.129Z,42.00
2018-02-07T00:35:52.885Z,41.03
2018-02-07T00:36:16.955Z,39.42
2018-02-07T00:36:40.708Z,38.00
2018-02-07T00:37:04.858Z,37.95
2018-02-07T00:37:28.628Z,36.58
2018-02-07T00:37:52.097Z,36.67
2018-02-07T00:38:15.860Z,36.28
2018-02-07T00:38:39.609Z,37.22
2018-02-07T00:39:03.298Z,38.38
2018-02-07T00:39:27.065Z,36.78
2018-02-07T00:39:50.972Z,36.97
2018-02-07T00:40:14.713Z,36.63
2018-02-07T00:40:38.503Z,36.50
2018-02-07T00:41:02.261Z,37.83
2018-02-07T00:41:26.430Z,38.65
2018-02-07T00:41:50.215Z,38.03
2018-02-07T00:42:14.237Z,36.75
2018-02-07T00:42:37.978Z,36.28
2018-02-07T00:43:01.732Z,34.92
2018-02-07T00:43:25.481Z,35.55
2018-02-07T00:43:49.285Z,36.63
2018-02-07T00:44:13.041Z,39.92
2018-02-07T00:44:36.821Z,37.65
2018-02-07T00:45:00.920Z,34.90
2018-02-07T00:45:24.669Z,32.83
2018-02-07T00:45:48.137Z,34.03
2018-02-07T00:46:11.941Z,35.42
2018-02-07T00:46:35.704Z,36.92
2018-02-07T00:46:59.232Z,38.87
2018-02-07T00:47:22.976Z,37.70
2018-02-07T00:47:46.736Z,36.25
2018-02-07T00:48:10.492Z,35.40
2018-02-07T00:48:34.549Z,34.60
2018-02-07T00:48:58.304Z,36.45
2018-02-07T00:49:21.848Z,36.25
2018-02-07T00:49:45.635Z,38.97
2018-02-07T00:50:09.424Z,39.35
2018-02-07T00:50:33.168Z,41.63
2018-02-07T00:50:57.321Z,40.03
2018-02-07T00:51:21.080Z,36.90
2018-02-07T00:51:45.137Z,36.13
2018-02-07T00:52:08.931Z,35.90
2018-02-07T00:52:32.398Z,37.47
2018-02-07T00:52:56.253Z,37.78
2018-02-07T00:53:20.044Z,37.63
2018-02-07T00:53:43.798Z,34.05
2018-02-07T00:54:07.523Z,32.58
2018-02-07T00:54:31.260Z,33.70
2018-02-07T00:54:55.052Z,37.08
2018-02-07T00:55:18.914Z,37.20
2018-02-07T00:55:42.942Z,37.00
2018-02-07T00:56:06.736Z,36.28
2018-02-07T00:56:30.485Z,37.78
2018-02-07T00:56:54.532Z,35.67
2018-02-07T00:57:18.003Z,36.43
2018-02-07T00:57:41.743Z,35.63
2018-02-07T00:58:05.597Z,35.40
2018-02-07T00:58:29.400Z,37.03
2018-02-07T00:58:53.176Z,38.00
2018-02-07T00:59:17.262Z,37.00
2018-02-07T00:59:41.013Z,35.33
2018-02-07T01:00:03.806Z,35.58
2018-02-07T01:00:27.592Z,36.72
2018-02-07T01:00:51.324Z,35.90
2018-02-07T01:01:15.114Z,36.15
2018-02-07T01:01:38.868Z,38.92
2018-02-07T01:02:03.023Z,38.53
2018-02-07T01:02:26.807Z,35.30
2018-02-07T01:02:50.843Z,36.20
2018-02-07T01:03:14.617Z,37.78
2018-02-07T01:03:38.668Z,38.85
2018-02-07T01:04:02.713Z,39.60
2018-02-07T01:04:26.547Z,37.58
2018-02-07T01:04:50.579Z,35.72
2018-02-07T01:05:14.057Z,38.20
2018-02-07T01:05:37.825Z,40.80
2018-02-07T01:06:01.570Z,40.90
2018-02-07T01:06:25.365Z,37.97
2018-02-07T01:06:49.597Z,36.22
2018-02-07T01:07:13.356Z,35.80
2018-02-07T01:07:37.108Z,33.95
2018-02-07T01:08:00.581Z,35.15
2018-02-07T01:08:24.324Z,35.55
2018-02-07T01:08:48.073Z,35.88
2018-02-07T01:09:11.771Z,36.05
2018-02-07T01:09:35.591Z,38.58
2018-02-07T01:09:59.331Z,40.70
2018-02-07T01:10:23.103Z,39.35
2018-02-07T01:10:46.878Z,38.38
2018-02-07T01:11:10.320Z,37.00
2018-02-07T01:11:34.091Z,38.30
2018-02-07T01:11:57.884Z,37.03
2018-02-07T01:12:21.634Z,37.58
2018-02-07T01:12:45.709Z,38.47
2018-02-07T01:13:09.461Z,40.12
2018-02-07T01:13:32.911Z,40.12
2018-02-07T01:13:56.707Z,36.58
2018-02-07T01:14:20.558Z,38.22
2018-02-07T01:14:44.416Z,37.35
2018-02-07T01:15:08.217Z,39.03
2018-02-07T01:15:31.712Z,38.95
2018-02-07T01:15:55.448Z,38.08
2018-02-07T01:16:19.263Z,38.40
2018-02-07T01:16:43.016Z,41.85
2018-02-07T01:17:07.166Z,42.38
2018-02-07T01:17:30.917Z,41.78
2018-02-07T01:17:54.011Z,41.75
2018-02-07T01:18:17.488Z,41.70
2018-02-07T01:18:42.002Z,41.92
2018-02-07T01:19:05.911Z,39.60
2018-02-07T01:19:29.651Z,39.67
2018-02-07T01:19:53.100Z,38.85
2018-02-07T01:20:16.947Z,41.67
2018-02-07T01:20:40.808Z,41.97
2018-02-07T01:21:04.638Z,43.30
2018-02-07T01:21:28.440Z,38.88
2018-02-07T01:21:52.467Z,36.53
2018-02-07T01:22:16.626Z,38.95
2018-02-07T01:22:40.433Z,38.53
2018-02-07T01:23:04.243Z,37.30
2018-02-07T01:23:28.300Z,36.78
2018-02-07T01:23:52.408Z,36.28
2018-02-07T01:24:16.230Z,34.67
2018-02-07T01:24:39.684Z,37.17
2018-02-07T01:25:03.452Z,36.63
2018-02-07T01:25:27.205Z,36.25
2018-02-07T01:25:50.979Z,38.45
2018-02-07T01:26:15.072Z,39.60
2018-02-07T01:26:38.880Z,38.17
2018-02-07T01:27:02.916Z,38.03
2018-02-07T01:27:26.773Z,40.20
2018-02-07T01:27:50.862Z,40.20
2018-02-07T01:28:14.623Z,40.30
2018-02-07T01:28:38.692Z,38.42
2018-02-07T01:29:02.765Z,40.17
2018-02-07T01:29:26.523Z,42.55
2018-02-07T01:29:50.553Z,42.83
2018-02-07T01:30:14.593Z,43.03
2018-02-07T01:30:38.338Z,39.45
2018-02-07T01:31:02.445Z,40.28
2018-02-07T01:31:26.193Z,39.22
2018-02-07T01:31:49.662Z,36.72
2018-02-07T01:32:13.444Z,37.55
2018-02-07T01:32:37.180Z,38.33
2018-02-07T01:33:01.240Z,39.28
2018-02-07T01:33:24.999Z,39.80
2018-02-07T01:33:48.525Z,38.30
2018-02-07T01:34:12.283Z,38.25
2018-02-07T01:34:36.064Z,39.35
2018-02-07T01:34:59.810Z,40.97
2018-02-07T01:35:23.294Z,40.10
2018-02-07T01:35:47.052Z,38.50
2018-02-07T01:36:10.848Z,36.53
2018-02-07T01:36:34.601Z,36.53
2018-02-07T01:36:58.055Z,38.08
2018-02-07T01:37:21.840Z,39.75
2018-02-07T01:37:45.634Z,38.83
2018-02-07T01:38:09.471Z,36.55
2018-02-07T01:38:33.432Z,38.03
2018-02-07T01:38:57.853Z,39.38
2018-02-07T01:39:21.595Z,38.88
2018-02-07T01:39:45.344Z,39.42
2018-02-07T01:40:08.680Z,41.42
2018-02-07T01:40:32.437Z,39.53
2018-02-07T01:40:57.009Z,36.33
2018-02-07T01:41:20.539Z,36.20
2018-02-07T01:41:44.280Z,38.25
2018-02-07T01:42:08.103Z,40.30
2018-02-07T01:42:31.865Z,40.38
2018-02-07T01:42:55.374Z,43.15
2018-02-07T01:43:19.126Z,44.15
2018-02-07T01:43:42.884Z,41.05
2018-02-07T01:44:06.916Z,40.15
2018-02-07T01:44:30.709Z,41.70
2018-02-07T01:44:54.739Z,42.05
2018-02-07T01:45:18.821Z,40.03
2018-02-07T01:45:42.573Z,40.67
2018-02-07T01:46:07.223Z,42.00
2018-02-07T01:46:30.701Z,40.78
2018-02-07T01:46:54.476Z,40.58
2018-02-07T01:47:18.511Z,39.35
2018-02-07T01:47:42.327Z,40.40
2018-02-07T01:48:06.392Z,38.75
2018-02-07T01:48:29.845Z,40.27
2018-02-07T01:48:53.591Z,40.38
2018-02-07T01:49:17.359Z,40.33
2018-02-07T01:49:41.121Z,40.28
2018-02-07T01:50:05.212Z,38.55
2018-02-07T01:50:29.087Z,40.05
2018-02-07T01:50:53.186Z,39.83
2018-02-07T01:51:16.938Z,41.30
2018-02-07T01:51:41.119Z,39.95
2018-02-07T01:52:05.026Z,40.20
2018-02-07T01:52:28.779Z,38.05
2018-02-07T01:52:52.856Z,39.13
2018-02-07T01:53:16.601Z,36.95
2018-02-07T01:53:40.192Z,37.45
2018-02-07T01:54:03.933Z,37.70
2018-02-07T01:54:27.738Z,36.65
2018-02-07T01:54:51.536Z,38.70
2018-02-07T01:55:15.602Z,40.00
2018-02-07T01:55:39.458Z,40.40
2018-02-07T01:56:03.700Z,39.20
2018-02-07T01:56:27.445Z,38.63
2018-02-07T01:56:51.225Z,39.63
2018-02-07T01:57:14.705Z,37.17
2018-02-07T01:57:38.451Z,37.65
2018-02-07T01:58:02.204Z,37.92
2018-02-07T01:58:25.693Z,39.43
2018-02-07T01:58:49.476Z,39.00
2018-02-07T01:59:13.265Z,38.13
2018-02-07T01:59:37.028Z,39.95
2018-02-07T02:00:00.485Z,41.27
2018-02-07T02:00:24.222Z,40.90
2018-02-07T02:00:47.957Z,41.90
2018-02-07T02:01:11.717Z,41.22
2018-02-07T02:01:35.915Z,41.10
2018-02-07T02:02:00.171Z,40.72
2018-02-07T02:02:23.960Z,39.83
2018-02-07T02:02:47.699Z,39.13
2018-02-07T02:03:11.507Z,40.00
2018-02-07T02:03:35.573Z,39.97
2018-02-07T02:03:59.051Z,40.80
2018-02-07T02:04:22.804Z,39.97
2018-02-07T02:04:46.555Z,39.88
2018-02-07T02:05:10.400Z,41.67
2018-02-07T02:05:34.153Z,40.00
2018-02-07T02:05:57.605Z,38.20
2018-02-07T02:06:21.355Z,38.08
2018-02-07T02:06:44.942Z,38.35
2018-02-07T02:07:08.725Z,38.47
2018-02-07T02:07:32.477Z,38.28
2018-02-07T02:07:56.276Z,38.83
2018-02-07T02:08:20.119Z,40.12
2018-02-07T02:08:43.893Z,39.53
2018-02-07T02:09:07.927Z,40.85
2018-02-07T02:09:31.721Z,40.78
2018-02-07T02:09:55.766Z,39.40
2018-02-07T02:10:19.314Z,39.20
2018-02-07T02:10:43.116Z,39.15
2018-02-07T02:11:06.868Z,38.70
2018-02-07T02:11:30.600Z,40.88
2018-02-07T02:11:54.723Z,40.55
2018-02-07T02:12:18.496Z,41.75
2018-02-07T02:12:42.537Z,41.75
2018-02-07T02:13:06.316Z,42.65
2018-02-07T02:13:29.804Z,40.17
2018-02-07T02:13:53.557Z,40.58
2018-02-07T02:14:17.291Z,41.65
2018-02-07T02:14:41.316Z,42.30
2018-02-07T02:15:05.079Z,41.10
2018-02-07T02:15:28.546Z,41.97
2018-02-07T02:15:52.296Z,41.90
2018-02-07T02:16:16.088Z,39.63
2018-02-07T02:16:39.533Z,38.53
2018-02-07T02:17:03.352Z,40.25
2018-02-07T02:17:27.133Z,42.47
2018-02-07T02:17:50.939Z,42.45
2018-02-07T02:18:14.703Z,40.88
2018-02-07T02:18:38.200Z,40.42
2018-02-07T02:19:01.986Z,42.20
2018-02-07T02:19:25.765Z,41.70
2018-02-07T02:19:49.586Z,41.60
2018-02-07T02:20:13.611Z,40.45
2018-02-07T02:20:37.159Z,40.63
2018-02-07T02:21:00.896Z,40.45
2018-02-07T02:21:24.644Z,40.22
2018-02-07T02:21:48.551Z,44.05
2018-02-07T02:22:12.349Z,45.12
2018-02-07T02:22:36.671Z,46.08
2018-02-07T02:23:00.408Z,40.88
2018-02-07T02:23:24.221Z,43.42
2018-02-07T02:23:48.317Z,41.92
2018-02-07T02:24:12.104Z,41.17
2018-02-07T02:24:36.154Z,41.28
2018-02-07T02:24:59.951Z,44.05
2018-02-07T02:25:24.000Z,43.90
2018-02-07T02:25:47.447Z,43.20
2018-02-07T02:26:11.201Z,43.10
2018-02-07T02:26:34.929Z,43.42
2018-02-07T02:26:58.520Z,41.03
2018-02-07T02:27:22.256Z,40.72
2018-02-07T02:27:46.060Z,40.67
2018-02-07T02:28:09.834Z,39.00
2018-02-07T02:28:33.685Z,38.15
2018-02-07T02:28:57.521Z,38.00
2018-02-07T02:29:21.549Z,37.55
2018-02-07T02:29:45.373Z,38.40
2018-02-07T02:30:09.154Z,39.45
2018-02-07T02:30:32.897Z,37.47
2018-02-07T02:30:56.640Z,39.38
2018-02-07T02:31:20.400Z,38.67
2018-02-07T02:31:44.175Z,37.70
2018-02-07T02:32:08.207Z,38.28
2018-02-07T02:32:32.027Z,40.72
2018-02-07T02:32:56.130Z,42.05
2018-02-07T02:33:19.722Z,40.08
2018-02-07T02:33:43.457Z,38.72
2018-02-07T02:34:07.322Z,39.50
2018-02-07T02:34:31.092Z,39.72
2018-02-07T02:34:54.834Z,39.92
2018-02-07T02:35:18.595Z,40.47
2018-02-07T02:35:41.369Z,42.40
2018-02-07T02:36:16.276Z,41.25
2018-02-07T02:36:41.288Z,41.53
2018-02-07T02:37:04.833Z,43.03
2018-02-07T02:37:28.647Z,41.47
2018-02-07T02:37:52.423Z,38.53
2018-02-07T02:38:16.472Z,38.50
2018-02-07T02:38:40.229Z,39.28
2018-02-07T02:39:03.693Z,39.88
2018-02-07T02:39:27.440Z,38.55
2018-02-07T02:39:51.206Z,39.05
2018-02-07T02:40:14.958Z,38.95
2018-02-07T02:40:38.700Z,40.75
2018-02-07T02:41:02.491Z,41.15
2018-02-07T02:41:26.244Z,40.58
2018-02-07T02:41:50.014Z,40.92
2018-02-07T02:42:13.856Z,40.00
2018-02-07T02:42:37.895Z,40.08
2018-02-07T02:43:01.352Z,39.77
2018-02-07T02:43:25.108Z,39.78
2018-02-07T02:43:48.875Z,40.67
2018-02-07T02:44:12.737Z,40.03
2018-02-07T02:44:36.482Z,39.20
2018-02-07T02:44:59.936Z,36.38
2018-02-07T02:45:23.757Z,37.47
2018-02-07T02:45:47.546Z,37.97
2018-02-07T02:46:11.298Z,41.40
2018-02-07T02:46:34.741Z,40.70
2018-02-07T02:46:58.607Z,40.33
2018-02-07T02:47:22.371Z,38.13
2018-02-07T02:47:46.137Z,38.42
2018-02-07T02:48:09.708Z,39.88
2018-02-07T02:48:33.485Z,40.30
2018-02-07T02:48:57.243Z,38.70
2018-02-07T02:49:20.996Z,38.08
2018-02-07T02:49:45.099Z,39.22
2018-02-07T02:50:08.857Z,40.85
2018-02-07T02:50:32.913Z,40.10
2018-02-07T02:50:56.999Z,38.20
2018-02-07T02:51:20.762Z,38.42
2018-02-07T02:51:44.796Z,40.25
2018-02-07T02:52:08.833Z,38.42
2018-02-07T02:52:32.613Z,37.45
2018-02-07T02:52:56.663Z,38.90
2018-02-07T02:53:20.136Z,39.07
2018-02-07T02:53:43.913Z,39.70
2018-02-07T02:54:07.708Z,38.70
2018-02-07T02:54:31.457Z,39.55
2018-02-07T02:54:55.531Z,37.60
2018-02-07T02:55:19.326Z,39.17
2018-02-07T02:55:43.353Z,38.42
2018-02-07T02:56:07.262Z,37.75
2018-02-07T02:56:31.317Z,38.05
2018-02-07T02:56:55.077Z,39.55
2018-02-07T02:57:19.112Z,41.08
2018-02-07T02:57:43.136Z,40.50
2018-02-07T02:58:06.949Z,40.00
2018-02-07T02:58:30.416Z,44.38
2018-02-07T02:58:54.297Z,45.15
2018-02-07T02:59:18.157Z,45.55
2018-02-07T02:59:41.882Z,44.22
2018-02-07T03:00:04.954Z,42.20
2018-02-07T03:00:28.737Z,42.45
2018-02-07T03:00:52.805Z,41.20
2018-02-07T03:01:16.205Z,42.13
2018-02-07T03:01:40.085Z,41.60
2018-02-07T03:02:03.846Z,39.85
2018-02-07T03:02:27.590Z,41.03
2018-02-07T03:02:51.332Z,39.67
2018-02-07T03:03:14.776Z,41.80
2018-02-07T03:03:38.504Z,42.25
2018-02-07T03:04:02.523Z,41.88
2018-02-07T03:04:26.355Z,43.00
2018-02-07T03:04:50.135Z,41.22
2018-02-07T03:05:14.177Z,41.17
2018-02-07T03:05:38.201Z,38.67
2018-02-07T03:06:02.003Z,38.20
2018-02-07T03:06:25.540Z,37.53
2018-02-07T03:06:49.375Z,38.78
2018-02-07T03:07:13.205Z,37.97
2018-02-07T03:07:36.630Z,37.90
2018-02-07T03:08:00.401Z,38.65
2018-02-07T03:08:24.153Z,39.05
2018-02-07T03:08:47.900Z,36.83
2018-02-07T03:09:11.666Z,38.22
2018-02-07T03:09:35.689Z,39.40
2018-02-07T03:09:59.127Z,40.70
2018-02-07T03:10:22.894Z,41.35
2018-02-07T03:10:46.643Z,40.65
2018-02-07T03:11:10.436Z,40.38
2018-02-07T03:11:34.490Z,39.22
2018-02-07T03:11:58.254Z,42.90
2018-02-07T03:12:22.317Z,40.75
2018-02-07T03:12:46.352Z,40.70
2018-02-07T03:13:10.097Z,42.92
2018-02-07T03:13:33.551Z,43.65
2018-02-07T03:13:57.328Z,42.05
2018-02-07T03:14:21.096Z,39.25
2018-02-07T03:14:44.870Z,40.22
2018-02-07T03:15:08.338Z,41.28
2018-02-07T03:15:32.113Z,38.95
2018-02-07T03:15:55.856Z,36.67
2018-02-07T03:16:19.884Z,36.90
2018-02-07T03:16:43.638Z,37.58
2018-02-07T03:17:07.096Z,39.17
2018-02-07T03:17:30.881Z,39.25
2018-02-07T03:17:54.668Z,39.22
2018-02-07T03:18:18.159Z,39.90
2018-02-07T03:18:41.903Z,39.75
2018-02-07T03:19:05.692Z,39.50
2018-02-07T03:19:29.538Z,39.72
2018-02-07T03:19:53.293Z,39.47
2018-02-07T03:20:16.737Z,42.40
2018-02-07T03:20:40.509Z,41.45
2018-02-07T03:21:04.247Z,40.60
2018-02-07T03:21:28.276Z,39.75
2018-02-07T03:21:52.029Z,40.15
2018-02-07T03:22:15.721Z,38.65
2018-02-07T03:22:39.540Z,37.00
2018-02-07T03:23:03.343Z,40.42
2018-02-07T03:23:27.116Z,41.95
2018-02-07T03:23:50.862Z,42.62
2018-02-07T03:24:16.173Z,43.38
2018-02-07T03:24:39.953Z,45.15
2018-02-07T03:25:03.773Z,41.75
2018-02-07T03:25:27.768Z,42.90
2018-02-07T03:25:51.519Z,42.85
2018-02-07T03:26:15.264Z,44.33
2018-02-07T03:26:39.056Z,42.45
2018-02-07T03:27:02.798Z,39.70
2018-02-07T03:27:26.661Z,39.10
2018-02-07T03:27:50.424Z,41.15
2018-02-07T03:28:14.460Z,40.00
2018-02-07T03:28:38.210Z,38.22
2018-02-07T03:29:01.671Z,37.30
2018-02-07T03:29:25.428Z,36.47
2018-02-07T03:29:49.232Z,40.63
2018-02-07T03:30:13.250Z,44.17
2018-02-07T03:30:37.028Z,43.67
2018-02-07T03:31:00.474Z,38.47
2018-02-07T03:31:24.208Z,39.25
2018-02-07T03:31:47.964Z,41.40
2018-02-07T03:32:11.980Z,43.38
2018-02-07T03:32:35.771Z,42.05
2018-02-07T03:32:59.243Z,39.60
2018-02-07T03:33:22.993Z,41.22
2018-02-07T03:33:46.739Z,40.60
2018-02-07T03:34:10.763Z,44.03
2018-02-07T03:34:34.538Z,45.40
2018-02-07T03:34:58.625Z,44.40
2018-02-07T03:35:22.381Z,41.90
2018-02-07T03:35:45.928Z,39.83
2018-02-07T03:36:09.697Z,38.70
2018-02-07T03:36:33.444Z,37.35
2018-02-07T03:36:57.201Z,36.83
2018-02-07T03:37:20.651Z,37.70
2018-02-07T03:37:44.590Z,37.90
2018-02-07T03:38:08.370Z,38.75
2018-02-07T03:38:32.125Z,39.42
2018-02-07T03:38:56.156Z,38.20
2018-02-07T03:39:20.052Z,38.75
2018-02-07T03:39:43.508Z,37.53
2018-02-07T03:40:08.137Z,38.63
2018-02-07T03:40:31.931Z,39.05
2018-02-07T03:40:55.525Z,39.67
2018-02-07T03:41:19.259Z,40.10
2018-02-07T03:41:43.045Z,42.40
2018-02-07T03:42:07.640Z,40.30
2018-02-07T03:42:31.123Z,38.70
2018-02-07T03:42:54.866Z,40.80
2018-02-07T03:43:18.609Z,39.65
2018-02-07T03:43:42.548Z,39.00
2018-02-07T03:44:06.321Z,37.17
2018-02-07T03:44:30.388Z,39.00
2018-02-07T03:44:54.445Z,37.88
2018-02-07T03:45:18.254Z,39.72
2018-02-07T03:45:42.345Z,39.78
2018-02-07T03:46:06.092Z,41.97
2018-02-07T03:46:30.204Z,40.63
2018-02-07T03:46:53.958Z,39.78
2018-02-07T03:47:17.547Z,38.83
2018-02-07T03:47:41.332Z,41.28
2018-02-07T03:48:05.084Z,41.90
2018-02-07T03:48:28.831Z,42.30
2018-02-07T03:48:52.880Z,43.17
2018-02-07T03:49:16.669Z,41.97
2018-02-07T03:49:40.748Z,39.15
2018-02-07T03:50:04.800Z,39.33
2018-02-07T03:50:28.644Z,40.38
2018-02-07T03:50:52.700Z,36.60
2018-02-07T03:51:16.452Z,37.35
2018-02-07T03:51:39.906Z,37.67
2018-02-07T03:52:03.701Z,38.97
2018-02-07T03:52:27.560Z,37.55
2018-02-07T03:52:51.313Z,38.80
2018-02-07T03:53:15.369Z,38.00
2018-02-07T03:53:39.116Z,37.65
2018-02-07T03:54:02.629Z,39.40
2018-02-07T03:54:26.424Z,41.83
2018-02-07T03:54:50.185Z,40.45
2018-02-07T03:55:13.935Z,40.85
2018-02-07T03:55:37.446Z,40.60
2018-02-07T03:56:01.211Z,40.42
2018-02-07T03:56:24.978Z,39.50
2018-02-07T03:56:48.769Z,37.60
2018-02-07T03:57:12.799Z,38.65
2018-02-07T03:57:36.865Z,40.15
2018-02-07T03:58:00.615Z,41.60
2018-02-07T03:58:24.166Z,40.40
2018-02-07T03:58:47.927Z,39.88
2018-02-07T03:59:11.752Z,39.65
2018-02-07T03:59:35.536Z,38.38
2018-02-07T03:59:59.578Z,39.22
2018-02-07T04:00:23.355Z,38.45
2018-02-07T04:00:47.406Z,41.63
2018-02-07T04:01:11.423Z,42.17
2018-02-07T04:01:35.155Z,42.28
2018-02-07T04:01:58.956Z,41.50
2018-02-07T04:02:22.454Z,40.75
2018-02-07T04:02:46.392Z,40.50
2018-02-07T04:03:10.152Z,43.30
2018-02-07T04:03:33.930Z,41.22
2018-02-07T04:03:57.160Z,37.75
2018-02-07T04:04:20.933Z,40.10
2018-02-07T04:04:45.022Z,39.63
2018-02-07T04:05:08.412Z,37.58
2018-02-07T04:05:32.180Z,38.10
2018-02-07T04:05:56.001Z,38.72
2018-02-07T04:06:19.744Z,39.65
2018-02-07T04:06:43.818Z,41.92
2018-02-07T04:07:07.564Z,43.38
2018-02-07T04:07:31.690Z,42.25
2018-02-07T04:07:55.441Z,40.75
2018-02-07T04:08:19.476Z,37.63
2018-02-07T04:08:43.540Z,38.50
2018-02-07T04:09:07.303Z,41.60
2018-02-07T04:09:31.444Z,41.08
2018-02-07T04:09:55.256Z,38.95
2018-02-07T04:10:19.279Z,41.15
2018-02-07T04:10:43.017Z,43.65
2018-02-07T04:11:06.770Z,43.08
2018-02-07T04:11:30.554Z,42.40
2018-02-07T04:11:54.451Z,41.50
2018-02-07T04:12:18.276Z,39.22
2018-02-07T04:12:42.021Z,40.12
2018-02-07T04:13:05.822Z,42.33
2018-02-07T04:13:29.887Z,40.72
2018-02-07T04:13:53.692Z,41.47
2018-02-07T04:14:17.165Z,41.30
2018-02-07T04:14:40.944Z,40.45
2018-02-07T04:15:04.693Z,41.00
2018-02-07T04:15:28.472Z,42.72
2018-02-07T04:15:52.528Z,43.20
2018-02-07T04:16:16.593Z,40.45
2018-02-07T04:16:40.465Z,39.92
2018-02-07T04:17:04.238Z,40.15
2018-02-07T04:17:27.689Z,39.60
2018-02-07T04:17:51.484Z,37.40
2018-02-07T04:18:15.249Z,37.50
2018-02-07T04:18:38.728Z,39.70
2018-02-07T04:19:02.528Z,43.53
2018-02-07T04:19:26.277Z,44.53
2018-02-07T04:19:50.128Z,43.47
2018-02-07T04:20:13.873Z,42.90
2018-02-07T04:20:37.349Z,42.92
2018-02-07T04:21:01.117Z,42.08
2018-02-07T04:21:24.887Z,41.75
2018-02-07T04:21:48.687Z,39.83
2018-02-07T04:22:12.717Z,39.22
2018-02-07T04:22:36.847Z,37.95
2018-02-07T04:23:00.603Z,38.38
2018-02-07T04:23:24.676Z,41.28
2018-02-07T04:23:48.465Z,41.42
2018-02-07T04:24:12.516Z,42.33
2018-02-07T04:24:36.304Z,42.65
2018-02-07T04:24:59.748Z,41.67
2018-02-07T04:25:23.496Z,44.13
2018-02-07T04:25:47.231Z,42.35
2018-02-07T04:26:11.329Z,41.78
2018-02-07T04:26:35.136Z,41.17
2018-02-07T04:26:59.172Z,41.88
2018-02-07T04:27:22.631Z,41.20
2018-02-07T04:27:46.370Z,39.67
2018-02-07T04:28:10.232Z,40.80
2018-02-07T04:28:33.969Z,42.25
2018-02-07T04:28:57.440Z,39.90
2018-02-07T04:29:21.193Z,39.28
2018-02-07T04:29:44.969Z,41.05
2018-02-07T04:30:08.745Z,42.08
2018-02-07T04:30:32.861Z,40.65
2018-02-07T04:30:56.597Z,41.45
2018-02-07T04:31:20.680Z,40.88
2018-02-07T04:31:44.460Z,41.90
2018-02-07T04:32:08.530Z,43.80
2018-02-07T04:32:32.275Z,43.42
2018-02-07T04:32:55.761Z,44.47
2018-02-07T04:33:19.488Z,44.97
2018-02-07T04:33:43.241Z,43.60
2018-02-07T04:34:07.292Z,43.42
2018-02-07T04:34:31.032Z,42.47
2018-02-07T04:34:54.547Z,41.70
2018-02-07T04:35:18.269Z,43.80
2018-02-07T04:35:42.036Z,43.72
2018-02-07T04:36:06.062Z,42.95
2018-02-07T04:36:29.805Z,45.20
2018-02-07T04:36:53.281Z,45.22
2018-02-07T04:37:17.072Z,43.65
2018-02-07T04:37:40.891Z,41.15
2018-02-07T04:38:04.703Z,38.67
2018-02-07T04:38:28.812Z,39.83
2018-02-07T04:38:52.565Z,42.00
2018-02-07T04:39:16.601Z,40.20
2018-02-07T04:39:40.663Z,39.60
2018-02-07T04:40:04.430Z,38.78
2018-02-07T04:40:28.505Z,39.63
2018-02-07T04:40:52.252Z,41.58
2018-02-07T04:41:15.998Z,43.60
2018-02-07T04:41:39.732Z,41.45
2018-02-07T04:42:03.488Z,42.47
2018-02-07T04:42:27.251Z,44.33
2018-02-07T04:42:50.752Z,44.90
2018-02-07T04:43:14.172Z,43.50
2018-02-07T04:43:37.539Z,42.70
2018-02-07T04:44:01.280Z,42.67
2018-02-07T04:44:25.016Z,42.13
2018-02-07T04:44:48.819Z,42.30
2018-02-07T04:45:12.304Z,41.63
2018-02-07T04:45:36.072Z,41.17
2018-02-07T04:45:59.833Z,40.00
2018-02-07T04:46:23.639Z,43.22
2018-02-07T04:46:47.702Z,42.55
2018-02-07T04:47:11.245Z,45.33
2018-02-07T04:47:35.017Z,44.92
2018-02-07T04:47:58.761Z,44.70
2018-02-07T04:48:22.577Z,46.33
2018-02-07T04:48:46.325Z,47.30
2018-02-07T04:49:09.772Z,44.92
2018-02-07T04:49:33.534Z,41.35
2018-02-07T04:49:57.291Z,37.25
2018-02-07T04:50:21.371Z,40.38
2018-02-07T04:50:45.118Z,42.67
2018-02-07T04:51:09.144Z,45.95
2018-02-07T04:51:33.180Z,46.63
2018-02-07T04:51:56.920Z,43.42
2018-02-07T04:52:20.504Z,45.03
2018-02-07T04:52:44.280Z,43.72
2018-02-07T04:53:08.017Z,44.42
2018-02-07T04:53:31.839Z,44.38
2018-02-07T04:53:55.324Z,44.80
2018-02-07T04:54:18.980Z,42.92
2018-02-07T04:54:42.740Z,43.85
2018-02-07T04:55:06.488Z,41.88
2018-02-07T04:55:30.064Z,42.65
2018-02-07T04:55:53.902Z,42.00
2018-02-07T04:56:17.647Z,42.05
2018-02-07T04:56:41.456Z,41.85
2018-02-07T04:57:05.200Z,45.63
2018-02-07T04:57:28.771Z,47.28
2018-02-07T04:57:52.572Z,46.55
2018-02-07T04:58:16.327Z,44.88
2018-02-07T04:58:40.101Z,43.15
2018-02-07T04:59:04.128Z,42.75
2018-02-07T04:59:27.875Z,43.15
2018-02-07T04:59:51.321Z,44.25
2018-02-07T05:00:15.071Z,47.47
2018-02-07T05:00:38.820Z,48.58
2018-02-07T05:01:02.869Z,46.95
2018-02-07T05:01:26.640Z,45.28
2018-02-07T05:01:50.124Z,45.60
2018-02-07T05:02:13.863Z,43.30
2018-02-07T05:02:37.627Z,40.80
2018-02-07T05:03:01.650Z,42.72
2018-02-07T05:03:25.391Z,45.00
2018-02-07T05:03:48.877Z,45.10
2018-02-07T05:04:12.604Z,43.75
2018-02-07T05:04:36.373Z,44.22
2018-02-07T05:05:00.419Z,42.28
2018-02-07T05:05:24.189Z,41.83
2018-02-07T05:05:47.662Z,44.03
2018-02-07T05:06:11.456Z,45.88
2018-02-07T05:06:35.187Z,45.42